Terminal Aerodrome Forecast
Issued by NWS Charleston, WV

Current Version | Previous Version | Text Only | Print | Product List | Glossary Off
Versions: 1 2 3 4 5 6 7 8 9 10 11 12 13 14 15 16 17 18 19 20 21 22 23 24 25 26

420
FTUS41 KRLX 170909 AAC
TAFPKB
TAF AMD
KPKB 170909Z 1709/1806 00000KT 5SM -SN BR BKN025
      TEMPO 1709/1713 1SM BR OVC010
     FM171400 24003KT P6SM SCT025
     FM171900 25006KT P6SM BKN035
     FM172100 26007KT P6SM BKN025
     FM180400 24005KT P6SM SCT150=

USA.gov is the U.S. government's official web portal to all federal, state and local government web resources and services.